Terminal Aerodrome Forecast
Issued by NWS Wilmington, NC

Home | Current Version | Previous Version | Text Only | Print | Product List | Glossary On
Versions: 1 2 3 4 5 6 7 8 9 10 11 12 13 14 15 16 17 18 19 20
556
FTUS42 KILM 290541
TAFLBT
TAF
KLBT 290541Z 2906/3006 03002KT 4SM BR BKN010
     FM291300 05006KT P6SM FEW020 SCT035
     FM291800 03008KT P6SM VCSH SCT035 BKN060 PROB30 2918/2923 P6SM
      TS BKN030 BKN050CB
     FM300300 06002KT P6SM SKC=

USA.gov is the U.S. government's official web portal to all federal, state and local government web resources and services.